sensor_id;sensor_type;location;lat;lon;timestamp;P1;durP1;ratioP1;P2;durP2;ratioP2
22883;SDS011;13386;24.786;110.488;2023-08-06T00:01:23;4.55;;;1.23;;
22883;SDS011;13386;24.786;110.488;2023-08-06T00:03:54;7.18;;;1.27;;
22883;SDS011;13386;24.786;110.488;2023-08-06T00:06:26;6.18;;;1.40;;
22883;SDS011;13386;24.786;110.488;2023-08-06T00:08:56;7.07;;;1.20;;
22883;SDS011;13386;24.786;110.488;2023-08-06T00:11:26;4.55;;;1.20;;
22883;SDS011;13386;24.786;110.488;2023-08-06T00:13:56;5.50;;;1.40;;
22883;SDS011;13386;24.786;110.488;2023-08-06T00:16:26;4.93;;;1.27;;
22883;SDS011;13386;24.786;110.488;2023-08-06T00:18:56;4.28;;;1.30;;
22883;SDS011;13386;24.786;110.488;2023-08-06T00:21:28;3.00;;;1.38;;
22883;SDS011;13386;24.786;110.488;2023-08-06T00:23:58;2.92;;;1.35;;
22883;SDS011;13386;24.786;110.488;2023-08-06T00:26:28;4.53;;;1.60;;
22883;SDS011;13386;24.786;110.488;2023-08-06T00:28:59;4.10;;;1.50;;
22883;SDS011;13386;24.786;110.488;2023-08-06T00:31:29;5.93;;;1.48;;
22883;SDS011;13386;24.786;110.488;2023-08-06T00:33:59;6.80;;;1.42;;
22883;SDS011;13386;24.786;110.488;2023-08-06T00:36:31;7.30;;;1.80;;
22883;SDS011;13386;24.786;110.488;2023-08-06T00:39:01;3.20;;;0.85;;
22883;SDS011;13386;24.786;110.488;2023-08-06T00:41:31;7.30;;;1.40;;
22883;SDS011;13386;24.786;110.488;2023-08-06T00:44:01;5.18;;;1.38;;
22883;SDS011;13386;24.786;110.488;2023-08-06T00:46:31;5.60;;;1.60;;
22883;SDS011;13386;24.786;110.488;2023-08-06T00:49:02;5.18;;;1.45;;
22883;SDS011;13386;24.786;110.488;2023-08-06T00:51:34;5.00;;;1.40;;
22883;SDS011;13386;24.786;110.488;2023-08-06T00:54:04;7.00;;;1.17;;
22883;SDS011;13386;24.786;110.488;2023-08-06T00:56:34;7.88;;;1.20;;
22883;SDS011;13386;24.786;110.488;2023-08-06T00:59:05;3.03;;;0.80;;
22883;SDS011;13386;24.786;110.488;2023-08-06T01:01:35;4.45;;;1.15;;
22883;SDS011;13386;24.786;110.488;2023-08-06T01:04:05;5.28;;;1.00;;
22883;SDS011;13386;24.786;110.488;2023-08-06T01:06:39;7.40;;;1.10;;
22883;SDS011;13386;24.786;110.488;2023-08-06T01:09:12;3.83;;;1.00;;
22883;SDS011;13386;24.786;110.488;2023-08-06T01:11:51;4.55;;;1.10;;
22883;SDS011;13386;24.786;110.488;2023-08-06T01:14:26;4.55;;;1.10;;
22883;SDS011;13386;24.786;110.488;2023-08-06T01:16:58;6.00;;;0.95;;
22883;SDS011;13386;24.786;110.488;2023-08-06T01:19:28;4.93;;;1.00;;
22883;SDS011;13386;24.786;110.488;2023-08-06T01:22:00;4.85;;;1.00;;
22883;SDS011;13386;24.786;110.488;2023-08-06T01:24:30;5.28;;;1.20;;
22883;SDS011;13386;24.786;110.488;2023-08-06T01:27:02;5.55;;;1.13;;
22883;SDS011;13386;24.786;110.488;2023-08-06T01:29:35;3.22;;;1.02;;
22883;SDS011;13386;24.786;110.488;2023-08-06T01:32:06;3.67;;;1.25;;
22883;SDS011;13386;24.786;110.488;2023-08-06T01:34:39;5.93;;;1.30;;
22883;SDS011;13386;24.786;110.488;2023-08-06T01:37:12;6.15;;;1.42;;
22883;SDS011;13386;24.786;110.488;2023-08-06T01:39:44;4.30;;;1.20;;
22883;SDS011;13386;24.786;110.488;2023-08-06T01:42:14;4.65;;;1.15;;
22883;SDS011;13386;24.786;110.488;2023-08-06T01:44:44;4.50;;;1.00;;
22883;SDS011;13386;24.786;110.488;2023-08-06T01:47:14;8.73;;;1.15;;
22883;SDS011;13386;24.786;110.488;2023-08-06T01:49:44;5.35;;;1.10;;
22883;SDS011;13386;24.786;110.488;2023-08-06T01:52:16;4.57;;;1.15;;
22883;SDS011;13386;24.786;110.488;2023-08-06T01:54:46;6.95;;;1.20;;
22883;SDS011;13386;24.786;110.488;2023-08-06T01:57:17;3.58;;;1.17;;
22883;SDS011;13386;24.786;110.488;2023-08-06T01:59:47;5.18;;;1.20;;
22883;SDS011;13386;24.786;110.488;2023-08-06T02:02:18;3.90;;;1.00;;
22883;SDS011;13386;24.786;110.488;2023-08-06T02:04:48;2.13;;;1.00;;
22883;SDS011;13386;24.786;110.488;2023-08-06T02:07:20;8.90;;;1.63;;
22883;SDS011;13386;24.786;110.488;2023-08-06T02:09:50;8.95;;;1.27;;
22883;SDS011;13386;24.786;110.488;2023-08-06T02:12:23;8.93;;;1.55;;
22883;SDS011;13386;24.786;110.488;2023-08-06T02:14:53;4.20;;;1.20;;
22883;SDS011;13386;24.786;110.488;2023-08-06T02:17:23;4.18;;;1.30;;
22883;SDS011;13386;24.786;110.488;2023-08-06T02:19:55;3.88;;;1.10;;
22883;SDS011;13386;24.786;110.488;2023-08-06T02:22:34;2.88;;;1.00;;
22883;SDS011;13386;24.786;110.488;2023-08-06T02:25:04;11.50;;;1.27;;
22883;SDS011;13386;24.786;110.488;2023-08-06T02:27:36;2.15;;;0.95;;
22883;SDS011;13386;24.786;110.488;2023-08-06T02:30:07;4.03;;;1.25;;
22883;SDS011;13386;24.786;110.488;2023-08-06T02:32:39;3.30;;;1.13;;
22883;SDS011;13386;24.786;110.488;2023-08-06T02:35:09;4.32;;;1.20;;
22883;SDS011;13386;24.786;110.488;2023-08-06T02:37:41;5.93;;;1.00;;
22883;SDS011;13386;24.786;110.488;2023-08-06T02:40:12;6.15;;;0.98;;
22883;SDS011;13386;24.786;110.488;2023-08-06T02:42:42;5.78;;;1.27;;
22883;SDS011;13386;24.786;110.488;2023-08-06T02:45:15;5.35;;;0.90;;
22883;SDS011;13386;24.786;110.488;2023-08-06T02:47:45;4.43;;;1.10;;
22883;SDS011;13386;24.786;110.488;2023-08-06T02:50:15;4.75;;;1.15;;
22883;SDS011;13386;24.786;110.488;2023-08-06T02:52:51;4.85;;;1.10;;
22883;SDS011;13386;24.786;110.488;2023-08-06T02:55:21;7.32;;;1.20;;
22883;SDS011;13386;24.786;110.488;2023-08-06T02:57:52;3.70;;;1.10;;
22883;SDS011;13386;24.786;110.488;2023-08-06T03:00:24;8.98;;;1.85;;
22883;SDS011;13386;24.786;110.488;2023-08-06T03:02:57;5.10;;;0.95;;
22883;SDS011;13386;24.786;110.488;2023-08-06T03:05:51;3.22;;;0.90;;
22883;SDS011;13386;24.786;110.488;2023-08-06T03:08:36;4.20;;;1.10;;
22883;SDS011;13386;24.786;110.488;2023-08-06T03:11:07;8.45;;;1.27;;
22883;SDS011;13386;24.786;110.488;2023-08-06T03:13:37;5.18;;;1.10;;
22883;SDS011;13386;24.786;110.488;2023-08-06T03:16:08;8.23;;;1.20;;
22883;SDS011;13386;24.786;110.488;2023-08-06T03:18:40;5.38;;;1.17;;
22883;SDS011;13386;24.786;110.488;2023-08-06T03:21:13;3.15;;;1.00;;
22883;SDS011;13386;24.786;110.488;2023-08-06T03:23:45;6.32;;;1.40;;
22883;SDS011;13386;24.786;110.488;2023-08-06T03:26:23;7.50;;;1.50;;
22883;SDS011;13386;24.786;110.488;2023-08-06T03:28:55;4.40;;;1.27;;
22883;SDS011;13386;24.786;110.488;2023-08-06T03:31:26;3.45;;;1.33;;
22883;SDS011;13386;24.786;110.488;2023-08-06T03:33:59;6.50;;;1.10;;
22883;SDS011;13386;24.786;110.488;2023-08-06T03:36:31;7.53;;;1.20;;
22883;SDS011;13386;24.786;110.488;2023-08-06T03:39:05;5.93;;;1.38;;
22883;SDS011;13386;24.786;110.488;2023-08-06T03:41:42;3.75;;;1.30;;
22883;SDS011;13386;24.786;110.488;2023-08-06T03:44:18;4.55;;;1.10;;
22883;SDS011;13386;24.786;110.488;2023-08-06T03:46:48;2.63;;;1.10;;
22883;SDS011;13386;24.786;110.488;2023-08-06T03:49:19;3.70;;;1.10;;
22883;SDS011;13386;24.786;110.488;2023-08-06T03:51:49;8.55;;;1.25;;
22883;SDS011;13386;24.786;110.488;2023-08-06T03:54:22;3.40;;;1.15;;
22883;SDS011;13386;24.786;110.488;2023-08-06T03:56:55;7.30;;;1.73;;
22883;SDS011;13386;24.786;110.488;2023-08-06T03:59:25;5.45;;;1.25;;
22883;SDS011;13386;24.786;110.488;2023-08-06T04:01:58;6.47;;;1.27;;
22883;SDS011;13386;24.786;110.488;2023-08-06T04:04:31;5.75;;;1.58;;
22883;SDS011;13386;24.786;110.488;2023-08-06T04:07:01;5.82;;;1.50;;
22883;SDS011;13386;24.786;110.488;2023-08-06T04:09:33;8.43;;;1.52;;
22883;SDS011;13386;24.786;110.488;2023-08-06T04:12:04;5.72;;;1.20;;
22883;SDS011;13386;24.786;110.488;2023-08-06T04:14:37;3.20;;;1.45;;
22883;SDS011;13386;24.786;110.488;2023-08-06T04:17:07;7.13;;;1.40;;
22883;SDS011;13386;24.786;110.488;2023-08-06T04:19:37;4.90;;;1.38;;
22883;SDS011;13386;24.786;110.488;2023-08-06T04:22:08;12.20;;;1.60;;
22883;SDS011;13386;24.786;110.488;2023-08-06T04:24:39;4.72;;;1.70;;
22883;SDS011;13386;24.786;110.488;2023-08-06T04:27:10;5.47;;;1.48;;
22883;SDS011;13386;24.786;110.488;2023-08-06T04:29:41;7.22;;;1.42;;
22883;SDS011;13386;24.786;110.488;2023-08-06T04:32:13;6.43;;;1.65;;
22883;SDS011;13386;24.786;110.488;2023-08-06T04:34:48;3.58;;;1.20;;
22883;SDS011;13386;24.786;110.488;2023-08-06T04:37:19;6.35;;;1.60;;
22883;SDS011;13386;24.786;110.488;2023-08-06T04:39:54;6.82;;;1.58;;
22883;SDS011;13386;24.786;110.488;2023-08-06T04:42:24;7.30;;;1.63;;
22883;SDS011;13386;24.786;110.488;2023-08-06T04:45:04;6.55;;;1.40;;
22883;SDS011;13386;24.786;110.488;2023-08-06T04:47:35;5.68;;;1.58;;
22883;SDS011;13386;24.786;110.488;2023-08-06T04:50:06;6.53;;;1.65;;
22883;SDS011;13386;24.786;110.488;2023-08-06T04:52:50;9.82;;;1.55;;
22883;SDS011;13386;24.786;110.488;2023-08-06T04:55:25;4.72;;;1.20;;
22883;SDS011;13386;24.786;110.488;2023-08-06T04:57:58;4.72;;;1.40;;
22883;SDS011;13386;24.786;110.488;2023-08-06T05:00:30;5.43;;;1.08;;
22883;SDS011;13386;24.786;110.488;2023-08-06T05:03:03;7.50;;;1.58;;
22883;SDS011;13386;24.786;110.488;2023-08-06T05:05:35;3.50;;;1.38;;
22883;SDS011;13386;24.786;110.488;2023-08-06T05:08:13;11.13;;;1.75;;
22883;SDS011;13386;24.786;110.488;2023-08-06T05:10:46;4.30;;;1.60;;
22883;SDS011;13386;24.786;110.488;2023-08-06T05:13:16;4.53;;;1.40;;
22883;SDS011;13386;24.786;110.488;2023-08-06T05:15:46;9.32;;;2.03;;
22883;SDS011;13386;24.786;110.488;2023-08-06T05:18:24;6.38;;;1.58;;
22883;SDS011;13386;24.786;110.488;2023-08-06T05:20:59;8.98;;;1.38;;
22883;SDS011;13386;24.786;110.488;2023-08-06T05:23:38;5.30;;;1.58;;
22883;SDS011;13386;24.786;110.488;2023-08-06T05:26:14;12.23;;;2.92;;
22883;SDS011;13386;24.786;110.488;2023-08-06T05:28:46;7.03;;;1.70;;
22883;SDS011;13386;24.786;110.488;2023-08-06T05:31:20;6.70;;;1.23;;
22883;SDS011;13386;24.786;110.488;2023-08-06T05:33:51;5.50;;;1.60;;
22883;SDS011;13386;24.786;110.488;2023-08-06T05:36:24;8.70;;;1.40;;
22883;SDS011;13386;24.786;110.488;2023-08-06T05:38:55;4.65;;;1.30;;
22883;SDS011;13386;24.786;110.488;2023-08-06T05:41:27;5.43;;;1.73;;
22883;SDS011;13386;24.786;110.488;2023-08-06T05:44:01;6.88;;;1.40;;
22883;SDS011;13386;24.786;110.488;2023-08-06T05:46:32;14.90;;;3.40;;
22883;SDS011;13386;24.786;110.488;2023-08-06T05:49:02;9.75;;;2.47;;
22883;SDS011;13386;24.786;110.488;2023-08-06T05:51:36;7.60;;;2.05;;
22883;SDS011;13386;24.786;110.488;2023-08-06T05:54:11;6.00;;;1.90;;
22883;SDS011;13386;24.786;110.488;2023-08-06T05:56:53;5.40;;;1.80;;
22883;SDS011;13386;24.786;110.488;2023-08-06T05:59:23;4.60;;;1.85;;
22883;SDS011;13386;24.786;110.488;2023-08-06T06:01:55;5.75;;;1.35;;
22883;SDS011;13386;24.786;110.488;2023-08-06T06:04:27;6.85;;;1.50;;
22883;SDS011;13386;24.786;110.488;2023-08-06T06:07:01;7.97;;;1.77;;
22883;SDS011;13386;24.786;110.488;2023-08-06T06:09:42;5.70;;;1.60;;
22883;SDS011;13386;24.786;110.488;2023-08-06T06:12:14;7.70;;;1.95;;
22883;SDS011;13386;24.786;110.488;2023-08-06T06:14:58;4.45;;;1.48;;
22883;SDS011;13386;24.786;110.488;2023-08-06T06:17:28;5.03;;;1.40;;
22883;SDS011;13386;24.786;110.488;2023-08-06T06:20:01;6.40;;;1.40;;
22883;SDS011;13386;24.786;110.488;2023-08-06T06:22:32;4.50;;;1.67;;
22883;SDS011;13386;24.786;110.488;2023-08-06T06:27:41;7.75;;;1.88;;
22883;SDS011;13386;24.786;110.488;2023-08-06T06:32:43;3.45;;;1.50;;
22883;SDS011;13386;24.786;110.488;2023-08-06T06:35:17;4.22;;;1.42;;
22883;SDS011;13386;24.786;110.488;2023-08-06T06:37:47;5.03;;;1.55;;
22883;SDS011;13386;24.786;110.488;2023-08-06T06:40:20;5.60;;;1.27;;
22883;SDS011;13386;24.786;110.488;2023-08-06T06:42:55;7.75;;;1.80;;
22883;SDS011;13386;24.786;110.488;2023-08-06T06:45:32;5.10;;;1.40;;
22883;SDS011;13386;24.786;110.488;2023-08-06T06:48:09;6.13;;;1.30;;
22883;SDS011;13386;24.786;110.488;2023-08-06T06:50:41;11.23;;;1.52;;
22883;SDS011;13386;24.786;110.488;2023-08-06T06:53:14;3.72;;;1.40;;
22883;SDS011;13386;24.786;110.488;2023-08-06T06:55:44;7.72;;;1.48;;
22883;SDS011;13386;24.786;110.488;2023-08-06T06:58:19;5.65;;;1.48;;
22883;SDS011;13386;24.786;110.488;2023-08-06T07:00:54;5.28;;;1.50;;
22883;SDS011;13386;24.786;110.488;2023-08-06T07:03:27;6.55;;;1.40;;
22883;SDS011;13386;24.786;110.488;2023-08-06T07:05:58;7.78;;;1.60;;
22883;SDS011;13386;24.786;110.488;2023-08-06T07:08:30;5.35;;;1.80;;
22883;SDS011;13386;24.786;110.488;2023-08-06T07:11:05;4.13;;;1.60;;
22883;SDS011;13386;24.786;110.488;2023-08-06T07:13:41;9.18;;;1.52;;
22883;SDS011;13386;24.786;110.488;2023-08-06T07:16:14;8.65;;;1.65;;
22883;SDS011;13386;24.786;110.488;2023-08-06T07:18:51;9.27;;;2.28;;
22883;SDS011;13386;24.786;110.488;2023-08-06T07:21:27;7.40;;;1.50;;
22883;SDS011;13386;24.786;110.488;2023-08-06T07:24:00;5.15;;;1.52;;
22883;SDS011;13386;24.786;110.488;2023-08-06T07:26:31;4.90;;;1.13;;
22883;SDS011;13386;24.786;110.488;2023-08-06T07:29:04;8.63;;;1.67;;
22883;SDS011;13386;24.786;110.488;2023-08-06T07:31:35;9.00;;;1.52;;
22883;SDS011;13386;24.786;110.488;2023-08-06T07:34:06;3.60;;;1.38;;
22883;SDS011;13386;24.786;110.488;2023-08-06T07:36:38;7.10;;;1.45;;
22883;SDS011;13386;24.786;110.488;2023-08-06T07:39:08;8.30;;;1.35;;
22883;SDS011;13386;24.786;110.488;2023-08-06T07:41:41;4.38;;;1.27;;
22883;SDS011;13386;24.786;110.488;2023-08-06T07:44:14;5.43;;;1.50;;
22883;SDS011;13386;24.786;110.488;2023-08-06T07:46:52;9.15;;;1.58;;
22883;SDS011;13386;24.786;110.488;2023-08-06T07:49:23;5.13;;;1.30;;
22883;SDS011;13386;24.786;110.488;2023-08-06T07:51:55;6.10;;;1.50;;
22883;SDS011;13386;24.786;110.488;2023-08-06T07:54:26;3.80;;;1.25;;
22883;SDS011;13386;24.786;110.488;2023-08-06T07:56:58;4.78;;;1.20;;
22883;SDS011;13386;24.786;110.488;2023-08-06T07:59:30;7.32;;;1.20;;
22883;SDS011;13386;24.786;110.488;2023-08-06T08:02:06;4.53;;;1.00;;
22883;SDS011;13386;24.786;110.488;2023-08-06T08:04:45;2.75;;;1.13;;
22883;SDS011;13386;24.786;110.488;2023-08-06T08:07:17;6.55;;;1.38;;
22883;SDS011;13386;24.786;110.488;2023-08-06T08:09:48;6.35;;;1.20;;
22883;SDS011;13386;24.786;110.488;2023-08-06T08:12:26;6.55;;;1.38;;
22883;SDS011;13386;24.786;110.488;2023-08-06T08:15:03;6.47;;;1.40;;
22883;SDS011;13386;24.786;110.488;2023-08-06T08:17:35;4.38;;;1.20;;
22883;SDS011;13386;24.786;110.488;2023-08-06T08:20:07;5.47;;;1.30;;
22883;SDS011;13386;24.786;110.488;2023-08-06T08:22:38;8.02;;;1.40;;
22883;SDS011;13386;24.786;110.488;2023-08-06T08:25:08;7.22;;;1.55;;
22883;SDS011;13386;24.786;110.488;2023-08-06T08:27:39;10.13;;;1.63;;
22883;SDS011;13386;24.786;110.488;2023-08-06T08:30:17;7.20;;;1.52;;
22883;SDS011;13386;24.786;110.488;2023-08-06T08:35:18;6.22;;;1.50;;
22883;SDS011;13386;24.786;110.488;2023-08-06T08:37:50;9.57;;;1.52;;
22883;SDS011;13386;24.786;110.488;2023-08-06T08:40:22;4.15;;;1.40;;
22883;SDS011;13386;24.786;110.488;2023-08-06T08:42:57;6.40;;;1.33;;
22883;SDS011;13386;24.786;110.488;2023-08-06T08:45:33;7.03;;;1.58;;
22883;SDS011;13386;24.786;110.488;2023-08-06T08:48:05;6.60;;;1.23;;
22883;SDS011;13386;24.786;110.488;2023-08-06T08:50:36;5.80;;;1.50;;
22883;SDS011;13386;24.786;110.488;2023-08-06T08:53:08;5.75;;;1.30;;
22883;SDS011;13386;24.786;110.488;2023-08-06T08:55:38;7.90;;;1.63;;
22883;SDS011;13386;24.786;110.488;2023-08-06T08:58:09;6.43;;;1.25;;
22883;SDS011;13386;24.786;110.488;2023-08-06T09:00:45;4.70;;;1.30;;
22883;SDS011;13386;24.786;110.488;2023-08-06T09:03:24;4.32;;;1.30;;
22883;SDS011;13386;24.786;110.488;2023-08-06T09:05:56;9.30;;;1.30;;
22883;SDS011;13386;24.786;110.488;2023-08-06T09:08:30;8.20;;;1.55;;
22883;SDS011;13386;24.786;110.488;2023-08-06T09:11:09;6.90;;;1.98;;
22883;SDS011;13386;24.786;110.488;2023-08-06T09:13:42;11.15;;;2.10;;
22883;SDS011;13386;24.786;110.488;2023-08-06T09:16:25;11.13;;;2.10;;
22883;SDS011;13386;24.786;110.488;2023-08-06T09:18:55;14.57;;;3.17;;
22883;SDS011;13386;24.786;110.488;2023-08-06T09:21:37;13.10;;;2.70;;
22883;SDS011;13386;24.786;110.488;2023-08-06T09:24:08;12.45;;;2.13;;
22883;SDS011;13386;24.786;110.488;2023-08-06T09:26:40;6.22;;;1.65;;
22883;SDS011;13386;24.786;110.488;2023-08-06T09:29:10;4.50;;;1.40;;
22883;SDS011;13386;24.786;110.488;2023-08-06T09:31:47;10.52;;;2.25;;
22883;SDS011;13386;24.786;110.488;2023-08-06T09:34:20;123.10;;;18.85;;
22883;SDS011;13386;24.786;110.488;2023-08-06T09:36:51;43.40;;;7.15;;
22883;SDS011;13386;24.786;110.488;2023-08-06T09:39:26;8.73;;;1.90;;
22883;SDS011;13386;24.786;110.488;2023-08-06T09:41:58;14.35;;;2.55;;
22883;SDS011;13386;24.786;110.488;2023-08-06T09:44:31;8.00;;;1.88;;
22883;SDS011;13386;24.786;110.488;2023-08-06T09:47:05;8.80;;;2.03;;
22883;SDS011;13386;24.786;110.488;2023-08-06T09:49:45;8.40;;;1.73;;
22883;SDS011;13386;24.786;110.488;2023-08-06T09:52:15;10.70;;;1.83;;
22883;SDS011;13386;24.786;110.488;2023-08-06T09:54:46;7.25;;;1.90;;
22883;SDS011;13386;24.786;110.488;2023-08-06T09:57:19;6.30;;;1.88;;
22883;SDS011;13386;24.786;110.488;2023-08-06T09:59:49;9.27;;;1.70;;
22883;SDS011;13386;24.786;110.488;2023-08-06T10:02:25;10.87;;;2.47;;
22883;SDS011;13386;24.786;110.488;2023-08-06T10:04:56;9.80;;;2.05;;
22883;SDS011;13386;24.786;110.488;2023-08-06T10:07:30;11.30;;;2.03;;
22883;SDS011;13386;24.786;110.488;2023-08-06T10:10:00;6.38;;;2.35;;
22883;SDS011;13386;24.786;110.488;2023-08-06T10:12:31;10.85;;;2.50;;
22883;SDS011;13386;24.786;110.488;2023-08-06T10:15:04;9.02;;;2.65;;
22883;SDS011;13386;24.786;110.488;2023-08-06T10:17:40;12.95;;;2.03;;
22883;SDS011;13386;24.786;110.488;2023-08-06T10:20:11;6.40;;;1.98;;
22883;SDS011;13386;24.786;110.488;2023-08-06T10:22:42;8.35;;;2.03;;
22883;SDS011;13386;24.786;110.488;2023-08-06T10:25:16;9.57;;;2.13;;
22883;SDS011;13386;24.786;110.488;2023-08-06T10:27:53;9.38;;;2.00;;
22883;SDS011;13386;24.786;110.488;2023-08-06T10:30:26;9.45;;;2.25;;
22883;SDS011;13386;24.786;110.488;2023-08-06T10:33:03;10.10;;;2.70;;
22883;SDS011;13386;24.786;110.488;2023-08-06T10:35:37;13.48;;;3.00;;
22883;SDS011;13386;24.786;110.488;2023-08-06T10:38:07;8.23;;;2.53;;
22883;SDS011;13386;24.786;110.488;2023-08-06T10:40:39;8.18;;;2.72;;
22883;SDS011;13386;24.786;110.488;2023-08-06T10:43:24;14.37;;;2.97;;
22883;SDS011;13386;24.786;110.488;2023-08-06T10:45:54;8.95;;;2.97;;
22883;SDS011;13386;24.786;110.488;2023-08-06T10:48:33;8.68;;;2.65;;
22883;SDS011;13386;24.786;110.488;2023-08-06T10:51:11;11.15;;;2.35;;
22883;SDS011;13386;24.786;110.488;2023-08-06T10:53:43;10.90;;;2.40;;
22883;SDS011;13386;24.786;110.488;2023-08-06T10:56:15;7.32;;;2.38;;
22883;SDS011;13386;24.786;110.488;2023-08-06T10:58:47;6.80;;;2.10;;
22883;SDS011;13386;24.786;110.488;2023-08-06T11:01:17;8.13;;;2.10;;
22883;SDS011;13386;24.786;110.488;2023-08-06T11:03:50;14.18;;;2.58;;
22883;SDS011;13386;24.786;110.488;2023-08-06T11:06:23;7.38;;;2.13;;
22883;SDS011;13386;24.786;110.488;2023-08-06T11:08:55;9.18;;;2.47;;
22883;SDS011;13386;24.786;110.488;2023-08-06T11:11:25;8.82;;;2.17;;
22883;SDS011;13386;24.786;110.488;2023-08-06T11:13:59;12.60;;;2.40;;
22883;SDS011;13386;24.786;110.488;2023-08-06T11:16:30;4.40;;;2.20;;
22883;SDS011;13386;24.786;110.488;2023-08-06T11:19:14;9.38;;;2.20;;
22883;SDS011;13386;24.786;110.488;2023-08-06T11:24:15;8.30;;;2.08;;
22883;SDS011;13386;24.786;110.488;2023-08-06T11:26:45;7.60;;;2.13;;
22883;SDS011;13386;24.786;110.488;2023-08-06T11:29:16;6.95;;;1.90;;
22883;SDS011;13386;24.786;110.488;2023-08-06T11:31:48;7.65;;;2.35;;
22883;SDS011;13386;24.786;110.488;2023-08-06T11:34:24;9.65;;;2.33;;
22883;SDS011;13386;24.786;110.488;2023-08-06T11:37:04;8.32;;;2.30;;
22883;SDS011;13386;24.786;110.488;2023-08-06T11:39:34;13.63;;;3.17;;
22883;SDS011;13386;24.786;110.488;2023-08-06T11:42:06;9.45;;;2.78;;
22883;SDS011;13386;24.786;110.488;2023-08-06T11:44:36;10.98;;;2.70;;
22883;SDS011;13386;24.786;110.488;2023-08-06T11:47:11;8.75;;;2.70;;
22883;SDS011;13386;24.786;110.488;2023-08-06T11:52:15;8.13;;;3.10;;
22883;SDS011;13386;24.786;110.488;2023-08-06T11:54:46;15.10;;;3.60;;
22883;SDS011;13386;24.786;110.488;2023-08-06T11:57:17;20.00;;;6.22;;
22883;SDS011;13386;24.786;110.488;2023-08-06T11:59:48;17.45;;;5.78;;
22883;SDS011;13386;24.786;110.488;2023-08-06T12:02:20;15.88;;;5.35;;
22883;SDS011;13386;24.786;110.488;2023-08-06T12:07:28;20.08;;;5.05;;
22883;SDS011;13386;24.786;110.488;2023-08-06T12:10:00;12.20;;;4.32;;
22883;SDS011;13386;24.786;110.488;2023-08-06T12:12:33;10.95;;;3.75;;
22883;SDS011;13386;24.786;110.488;2023-08-06T12:15:05;14.48;;;3.60;;
22883;SDS011;13386;24.786;110.488;2023-08-06T12:17:46;9.85;;;3.45;;
22883;SDS011;13386;24.786;110.488;2023-08-06T12:20:19;12.32;;;3.70;;
22883;SDS011;13386;24.786;110.488;2023-08-06T12:22:52;10.20;;;2.83;;
22883;SDS011;13386;24.786;110.488;2023-08-06T12:25:22;11.65;;;3.63;;
22883;SDS011;13386;24.786;110.488;2023-08-06T12:27:54;12.23;;;4.03;;
22883;SDS011;13386;24.786;110.488;2023-08-06T12:30:26;10.93;;;3.13;;
22883;SDS011;13386;24.786;110.488;2023-08-06T12:32:58;10.40;;;3.28;;
22883;SDS011;13386;24.786;110.488;2023-08-06T12:35:29;11.98;;;3.05;;
22883;SDS011;13386;24.786;110.488;2023-08-06T12:38:02;13.48;;;3.35;;
22883;SDS011;13386;24.786;110.488;2023-08-06T12:40:34;10.80;;;3.38;;
22883;SDS011;13386;24.786;110.488;2023-08-06T12:43:08;13.52;;;3.10;;
22883;SDS011;13386;24.786;110.488;2023-08-06T12:45:40;10.65;;;3.40;;
22883;SDS011;13386;24.786;110.488;2023-08-06T12:48:12;14.52;;;3.55;;
22883;SDS011;13386;24.786;110.488;2023-08-06T12:50:47;11.75;;;3.38;;
22883;SDS011;13386;24.786;110.488;2023-08-06T12:53:22;15.02;;;3.72;;
22883;SDS011;13386;24.786;110.488;2023-08-06T12:55:53;13.38;;;3.72;;
22883;SDS011;13386;24.786;110.488;2023-08-06T12:58:23;15.80;;;3.35;;
22883;SDS011;13386;24.786;110.488;2023-08-06T13:00:54;11.05;;;3.10;;
22883;SDS011;13386;24.786;110.488;2023-08-06T13:03:24;13.88;;;4.30;;
22883;SDS011;13386;24.786;110.488;2023-08-06T13:05:56;11.15;;;3.53;;
22883;SDS011;13386;24.786;110.488;2023-08-06T13:08:31;8.70;;;3.40;;
22883;SDS011;13386;24.786;110.488;2023-08-06T13:11:03;12.02;;;3.45;;
22883;SDS011;13386;24.786;110.488;2023-08-06T13:13:37;9.52;;;3.33;;
22883;SDS011;13386;24.786;110.488;2023-08-06T13:16:16;8.75;;;3.15;;
22883;SDS011;13386;24.786;110.488;2023-08-06T13:18:47;10.70;;;3.78;;
22883;SDS011;13386;24.786;110.488;2023-08-06T13:21:19;10.13;;;2.97;;
22883;SDS011;13386;24.786;110.488;2023-08-06T13:26:25;10.65;;;3.35;;
22883;SDS011;13386;24.786;110.488;2023-08-06T13:28:57;18.17;;;3.88;;
22883;SDS011;13386;24.786;110.488;2023-08-06T13:31:30;17.10;;;3.88;;
22883;SDS011;13386;24.786;110.488;2023-08-06T13:34:04;13.95;;;3.40;;
22883;SDS011;13386;24.786;110.488;2023-08-06T13:36:34;11.70;;;2.97;;
22883;SDS011;13386;24.786;110.488;2023-08-06T13:39:07;14.55;;;3.17;;
22883;SDS011;13386;24.786;110.488;2023-08-06T13:41:40;14.00;;;3.20;;
22883;SDS011;13386;24.786;110.488;2023-08-06T13:44:11;10.95;;;3.22;;
22883;SDS011;13386;24.786;110.488;2023-08-06T13:46:42;10.57;;;3.10;;
22883;SDS011;13386;24.786;110.488;2023-08-06T13:49:15;9.02;;;2.90;;
22883;SDS011;13386;24.786;110.488;2023-08-06T13:51:45;8.70;;;3.10;;
22883;SDS011;13386;24.786;110.488;2023-08-06T13:54:18;12.32;;;3.05;;
22883;SDS011;13386;24.786;110.488;2023-08-06T13:56:50;13.93;;;3.53;;
22883;SDS011;13386;24.786;110.488;2023-08-06T13:59:26;12.15;;;3.65;;
22883;SDS011;13386;24.786;110.488;2023-08-06T14:01:56;12.43;;;3.72;;
22883;SDS011;13386;24.786;110.488;2023-08-06T14:04:28;12.82;;;3.75;;
22883;SDS011;13386;24.786;110.488;2023-08-06T14:07:02;19.52;;;3.88;;
22883;SDS011;13386;24.786;110.488;2023-08-06T14:09:34;11.13;;;3.60;;
22883;SDS011;13386;24.786;110.488;2023-08-06T14:12:07;8.95;;;3.30;;
22883;SDS011;13386;24.786;110.488;2023-08-06T14:14:40;11.20;;;3.30;;
22883;SDS011;13386;24.786;110.488;2023-08-06T14:17:19;12.30;;;4.22;;
22883;SDS011;13386;24.786;110.488;2023-08-06T14:19:52;17.83;;;4.00;;
22883;SDS011;13386;24.786;110.488;2023-08-06T14:22:22;18.38;;;4.30;;
22883;SDS011;13386;24.786;110.488;2023-08-06T14:25:04;14.43;;;4.72;;
22883;SDS011;13386;24.786;110.488;2023-08-06T14:27:40;13.75;;;3.95;;
22883;SDS011;13386;24.786;110.488;2023-08-06T14:30:11;11.02;;;3.50;;
22883;SDS011;13386;24.786;110.488;2023-08-06T14:32:50;10.88;;;4.10;;
22883;SDS011;13386;24.786;110.488;2023-08-06T14:35:22;13.23;;;4.13;;
22883;SDS011;13386;24.786;110.488;2023-08-06T14:37:57;11.43;;;3.70;;
22883;SDS011;13386;24.786;110.488;2023-08-06T14:40:28;18.50;;;4.60;;
22883;SDS011;13386;24.786;110.488;2023-08-06T14:43:08;12.55;;;3.60;;
22883;SDS011;13386;24.786;110.488;2023-08-06T14:45:42;13.55;;;4.00;;
22883;SDS011;13386;24.786;110.488;2023-08-06T14:48:16;14.73;;;4.65;;
22883;SDS011;13386;24.786;110.488;2023-08-06T14:50:55;12.32;;;4.10;;
22883;SDS011;13386;24.786;110.488;2023-08-06T14:53:26;10.18;;;3.85;;
22883;SDS011;13386;24.786;110.488;2023-08-06T14:55:59;8.40;;;3.55;;
22883;SDS011;13386;24.786;110.488;2023-08-06T14:58:33;14.00;;;4.07;;
22883;SDS011;13386;24.786;110.488;2023-08-06T15:01:06;10.85;;;3.42;;
22883;SDS011;13386;24.786;110.488;2023-08-06T15:03:36;13.70;;;3.90;;
22883;SDS011;13386;24.786;110.488;2023-08-06T15:06:13;9.35;;;3.13;;
22883;SDS011;13386;24.786;110.488;2023-08-06T15:08:45;11.00;;;3.80;;